createdAt,value
2023-01-11T00:00:55.707Z,86.59
2023-01-11T00:03:22.846Z,86.67
2023-01-11T00:05:49.692Z,86.42
2023-01-11T00:08:16.584Z,86.69
2023-01-11T00:10:43.702Z,86.46
2023-01-11T00:13:10.562Z,86.86
2023-01-11T00:15:38.550Z,86.69
2023-01-11T00:18:05.892Z,86.63
2023-01-11T00:20:33.039Z,86.64
2023-01-11T00:23:00.051Z,86.73
2023-01-11T00:25:27.338Z,86.88
2023-01-11T00:27:54.746Z,87.12
2023-01-11T00:30:21.866Z,87.06
2023-01-11T00:32:48.782Z,87.29
2023-01-11T00:35:16.495Z,87.59
2023-01-11T00:37:43.301Z,87.70
2023-01-11T00:40:10.691Z,88.02
2023-01-11T00:42:55.973Z,87.47
2023-01-11T00:45:41.393Z,87.91
2023-01-11T00:48:10.739Z,88.14
2023-01-11T00:50:39.152Z,87.93
2023-01-11T00:53:07.668Z,88.18
2023-01-11T00:55:34.953Z,88.09
2023-01-11T00:58:02.348Z,87.94
2023-01-11T01:00:49.006Z,88.11
2023-01-11T01:03:15.944Z,88.48
2023-01-11T01:05:42.913Z,88.43
2023-01-11T01:08:09.935Z,89.09
2023-01-11T01:10:36.888Z,88.88
2023-01-11T01:13:24.209Z,88.52
2023-01-11T01:15:57.845Z,88.86
2023-01-11T01:18:24.823Z,88.55
2023-01-11T01:20:51.809Z,88.56
2023-01-11T01:23:19.043Z,88.37
2023-01-11T01:25:46.071Z,88.90
2023-01-11T01:28:13.136Z,88.65
2023-01-11T01:30:41.297Z,88.54
2023-01-11T01:33:08.206Z,88.64
2023-01-11T01:35:38.019Z,88.57
2023-01-11T01:38:05.037Z,88.72
2023-01-11T01:40:32.107Z,88.88
2023-01-11T01:43:00.088Z,88.93
2023-01-11T01:45:28.870Z,88.38
2023-01-11T01:48:01.732Z,88.25
2023-01-11T01:50:34.082Z,88.51
2023-01-11T01:53:12.675Z,88.41
2023-01-11T01:55:43.334Z,88.57
2023-01-11T01:58:14.291Z,89.09
2023-01-11T02:00:44.012Z,88.87
2023-01-11T02:03:16.276Z,89.19
2023-01-11T02:05:43.892Z,89.05
2023-01-11T02:08:25.000Z,89.10
2023-01-11T02:10:53.356Z,89.12
2023-01-11T02:13:20.971Z,89.24
2023-01-11T02:16:07.448Z,89.03
2023-01-11T02:18:37.649Z,89.22
2023-01-11T02:21:24.733Z,89.62
2023-01-11T02:24:17.957Z,89.71
2023-01-11T02:27:09.511Z,89.81
2023-01-11T02:29:36.408Z,89.27
2023-01-11T02:32:14.461Z,89.98
2023-01-11T02:34:59.358Z,89.49
2023-01-11T02:37:43.234Z,89.89
2023-01-11T02:40:41.985Z,89.63
2023-01-11T02:43:36.990Z,89.79
2023-01-11T02:46:16.861Z,89.45
2023-01-11T02:49:05.012Z,89.47
2023-01-11T02:51:42.726Z,89.49
2023-01-11T02:54:12.782Z,89.27
2023-01-11T02:56:43.414Z,89.37
2023-01-11T02:59:23.928Z,88.77
2023-01-11T03:01:55.632Z,88.33
2023-01-11T03:04:25.801Z,88.74
2023-01-11T03:07:33.137Z,88.54
2023-01-11T03:10:01.187Z,88.07
2023-01-11T03:12:57.272Z,88.50
2023-01-11T03:15:30.644Z,88.84
2023-01-11T03:18:31.812Z,88.79
2023-01-11T03:21:08.071Z,88.71
2023-01-11T03:23:44.268Z,88.73
2023-01-11T03:26:48.184Z,88.68
2023-01-11T03:29:27.379Z,88.73
2023-01-11T03:32:01.108Z,88.68
2023-01-11T03:34:40.447Z,88.05
2023-01-11T03:37:12.204Z,90.06
2023-01-11T03:39:52.220Z,90.76
2023-01-11T03:42:23.825Z,91.83
2023-01-11T03:44:55.688Z,92.88
2023-01-11T03:47:25.948Z,92.20
2023-01-11T03:50:01.426Z,92.72
2023-01-11T03:52:35.089Z,92.93
2023-01-11T03:55:05.900Z,92.74
2023-01-11T03:57:38.251Z,92.06
2023-01-11T04:00:07.879Z,91.46
2023-01-11T04:02:39.534Z,91.38
2023-01-11T04:05:07.949Z,90.67
2023-01-11T04:07:35.543Z,91.87
2023-01-11T04:10:03.178Z,91.63
2023-01-11T04:12:31.128Z,92.41
2023-01-11T04:14:58.125Z,93.30
2023-01-11T04:17:25.185Z,93.06
2023-01-11T04:19:52.062Z,92.95
2023-01-11T04:22:19.073Z,93.25
2023-01-11T04:24:45.908Z,92.82
2023-01-11T04:27:12.912Z,92.79
2023-01-11T04:29:39.806Z,93.53
2023-01-11T04:32:06.996Z,92.96
2023-01-11T04:34:33.945Z,92.07
2023-01-11T04:37:01.015Z,91.80
2023-01-11T04:39:28.243Z,91.14
2023-01-11T04:42:14.141Z,91.70
2023-01-11T04:44:41.466Z,92.48
2023-01-11T04:47:08.692Z,92.93
2023-01-11T04:49:35.705Z,93.13
2023-01-11T04:52:02.813Z,95.20
2023-01-11T04:54:29.819Z,94.84
2023-01-11T04:56:57.812Z,95.41
2023-01-11T04:59:24.901Z,94.77
2023-01-11T05:01:51.886Z,94.88
2023-01-11T05:04:20.378Z,93.48
2023-01-11T05:06:47.382Z,92.81
2023-01-11T05:09:18.613Z,91.93
2023-01-11T05:11:45.959Z,92.61
2023-01-11T05:14:13.621Z,92.87
2023-01-11T05:16:40.704Z,92.58
2023-01-11T05:19:09.332Z,93.36
2023-01-11T05:21:42.321Z,93.58
2023-01-11T05:24:14.118Z,93.15
2023-01-11T05:26:44.621Z,93.37
2023-01-11T05:29:13.344Z,92.94
2023-01-11T05:31:40.948Z,93.37
2023-01-11T05:34:09.865Z,93.94
2023-01-11T05:36:37.056Z,93.77
2023-01-11T05:39:05.077Z,92.78
2023-01-11T05:41:32.462Z,92.11
2023-01-11T05:44:17.883Z,92.60
2023-01-11T05:46:45.389Z,93.18
2023-01-11T05:49:13.508Z,93.61
2023-01-11T05:51:42.489Z,93.58
2023-01-11T05:54:12.763Z,93.36
2023-01-11T05:56:40.006Z,93.06
2023-01-11T05:59:07.256Z,93.01
2023-01-11T06:01:34.786Z,92.93
2023-01-11T06:04:01.896Z,93.05
2023-01-11T06:06:29.256Z,92.58
2023-01-11T06:08:56.484Z,91.45
2023-01-11T06:11:23.424Z,91.12
2023-01-11T06:13:50.505Z,91.80
2023-01-11T06:16:20.375Z,91.97
2023-01-11T06:18:49.654Z,91.88
2023-01-11T06:21:18.167Z,91.84
2023-01-11T06:23:47.373Z,91.26
2023-01-11T06:26:15.432Z,90.37
2023-01-11T06:28:43.115Z,90.34
2023-01-11T06:31:11.102Z,89.88
2023-01-11T06:33:39.065Z,90.69
2023-01-11T06:36:11.337Z,90.38
2023-01-11T06:38:38.723Z,89.52
2023-01-11T06:41:10.615Z,89.21
2023-01-11T06:43:41.067Z,88.22
2023-01-11T06:46:14.092Z,87.13
2023-01-11T06:48:41.144Z,88.49
2023-01-11T06:51:10.973Z,89.00
2023-01-11T06:53:38.246Z,89.30
2023-01-11T06:56:05.724Z,89.43
2023-01-11T06:58:33.160Z,87.23
2023-01-11T07:01:00.200Z,86.19
2023-01-11T07:03:27.704Z,86.11
2023-01-11T07:05:58.970Z,86.33
2023-01-11T07:08:26.705Z,85.49
2023-01-11T07:10:54.211Z,84.84
2023-01-11T07:13:21.826Z,82.74
2023-01-11T07:15:50.810Z,82.48
2023-01-11T07:18:19.190Z,82.48
2023-01-11T07:20:47.088Z,82.88
2023-01-11T07:23:14.633Z,82.88
2023-01-11T07:25:41.599Z,82.52
2023-01-11T07:28:09.412Z,82.24
2023-01-11T07:30:56.147Z,83.35
2023-01-11T07:33:25.042Z,83.80
2023-01-11T07:35:52.429Z,84.29
2023-01-11T07:38:19.669Z,81.99
2023-01-11T07:40:46.651Z,81.91
2023-01-11T07:43:15.471Z,80.45
2023-01-11T07:45:46.371Z,80.08
2023-01-11T07:48:14.691Z,79.25
2023-01-11T07:50:44.891Z,77.94
2023-01-11T07:53:13.961Z,78.47
2023-01-11T07:55:41.470Z,78.65
2023-01-11T07:58:11.472Z,77.85
2023-01-11T08:00:40.916Z,78.31
2023-01-11T08:03:08.071Z,78.16
2023-01-11T08:05:36.525Z,78.29
2023-01-11T08:08:04.158Z,78.84
2023-01-11T08:10:31.105Z,78.26
2023-01-11T08:13:16.819Z,78.79
2023-01-11T08:15:44.385Z,78.87
2023-01-11T08:18:12.704Z,80.44
2023-01-11T08:20:40.357Z,81.12
2023-01-11T08:23:09.875Z,80.76
2023-01-11T08:25:37.353Z,81.38
2023-01-11T08:28:07.435Z,81.29
2023-01-11T08:30:36.435Z,80.85
2023-01-11T08:33:06.202Z,79.53
2023-01-11T08:35:39.232Z,79.70
2023-01-11T08:38:07.120Z,79.89
2023-01-11T08:40:34.220Z,81.03
2023-01-11T08:43:01.590Z,80.18
2023-01-11T08:45:29.146Z,79.27
2023-01-11T08:47:56.550Z,78.74
2023-01-11T08:50:23.639Z,78.13
2023-01-11T08:52:51.837Z,78.98
2023-01-11T08:55:22.003Z,77.71
2023-01-11T08:57:49.069Z,77.35
2023-01-11T09:00:16.486Z,78.54
2023-01-11T09:02:45.419Z,78.91
2023-01-11T09:05:12.637Z,79.54
2023-01-11T09:07:39.507Z,80.17
2023-01-11T09:10:07.094Z,80.45
2023-01-11T09:12:34.038Z,79.55
2023-01-11T09:15:01.205Z,78.73
2023-01-11T09:17:28.500Z,78.66
2023-01-11T09:19:55.477Z,80.07
2023-01-11T09:22:23.123Z,81.32
2023-01-11T09:24:50.124Z,82.33
2023-01-11T09:27:17.571Z,82.16
2023-01-11T09:29:46.139Z,82.03
2023-01-11T09:32:13.403Z,82.08
2023-01-11T09:34:42.954Z,81.99
2023-01-11T09:37:10.407Z,82.03
2023-01-11T09:39:37.491Z,81.09
2023-01-11T09:42:22.133Z,81.06
2023-01-11T09:44:51.610Z,80.15
2023-01-11T09:47:21.695Z,79.05
2023-01-11T09:49:56.526Z,78.90
2023-01-11T09:52:32.964Z,78.25
2023-01-11T09:55:01.587Z,78.64
2023-01-11T09:57:38.977Z,77.19
2023-01-11T10:00:12.849Z,73.97
2023-01-11T10:03:11.385Z,73.71
2023-01-11T10:06:00.246Z,73.98
2023-01-11T10:18:29.794Z,76.96
2023-01-11T10:19:49.566Z,77.50
2023-01-11T10:22:24.048Z,75.61
2023-01-11T10:25:15.636Z,73.59
2023-01-11T10:27:59.027Z,71.95
2023-01-11T10:31:01.493Z,70.14
2023-01-11T10:34:19.183Z,71.22
2023-01-11T10:37:47.035Z,70.99
2023-01-11T10:40:40.206Z,71.30
2023-01-11T10:43:22.451Z,72.96
2023-01-11T10:45:53.818Z,72.11
2023-01-11T10:48:28.148Z,71.96
2023-01-11T10:51:01.874Z,69.72
2023-01-11T10:53:38.689Z,70.49
2023-01-11T10:56:24.703Z,70.79
2023-01-11T10:59:16.164Z,68.20
2023-01-11T11:01:52.984Z,67.44
2023-01-11T11:04:38.540Z,67.60
2023-01-11T11:07:27.103Z,67.66
2023-01-11T11:10:26.496Z,67.94
2023-01-11T11:12:59.125Z,69.77
2023-01-11T11:15:45.412Z,69.61
2023-01-11T11:18:13.181Z,68.81
2023-01-11T11:20:40.963Z,69.75
2023-01-11T11:23:16.436Z,70.32
2023-01-11T11:25:49.753Z,70.85
2023-01-11T11:28:22.919Z,70.58
2023-01-11T11:30:53.724Z,71.38
2023-01-11T11:33:24.849Z,71.54
2023-01-11T11:36:02.268Z,70.53
2023-01-11T11:38:32.287Z,70.71
2023-01-11T11:41:09.895Z,68.88
2023-01-11T11:43:40.168Z,68.31
2023-01-11T11:46:25.096Z,70.02
2023-01-11T11:49:12.387Z,70.30
2023-01-11T11:51:41.298Z,69.70
2023-01-11T11:54:18.741Z,70.67
2023-01-11T11:56:45.999Z,70.50
2023-01-11T11:59:20.276Z,69.94
2023-01-11T12:01:55.124Z,68.58
2023-01-11T12:04:30.426Z,65.36
2023-01-11T12:07:12.793Z,65.12
2023-01-11T12:09:47.207Z,64.98
2023-01-11T12:12:19.567Z,65.12
2023-01-11T12:15:14.982Z,65.76
2023-01-11T12:17:43.553Z,65.08
2023-01-11T12:20:22.874Z,65.42
2023-01-11T12:22:50.612Z,64.37
2023-01-11T12:25:17.650Z,65.14
2023-01-11T12:28:15.023Z,66.42
2023-01-11T12:30:55.119Z,67.66
2023-01-11T12:33:59.083Z,68.38
2023-01-11T12:37:25.397Z,68.85
2023-01-11T12:39:52.444Z,68.87
2023-01-11T12:42:41.610Z,68.39
2023-01-11T12:45:27.958Z,67.66
2023-01-11T12:48:18.539Z,69.67
2023-01-11T12:51:29.617Z,68.84
2023-01-11T12:54:38.398Z,69.78
2023-01-11T12:57:21.791Z,70.04
2023-01-11T13:00:35.126Z,70.25
2023-01-11T13:03:34.457Z,70.62
2023-01-11T13:06:30.591Z,70.67
2023-01-11T13:09:23.605Z,70.81
2023-01-11T13:12:13.622Z,71.53
2023-01-11T13:15:02.238Z,71.73
2023-01-11T13:17:47.663Z,71.55
2023-01-11T13:20:25.759Z,71.44
2023-01-11T13:23:09.474Z,70.14
2023-01-11T13:25:45.104Z,70.95
2023-01-11T13:28:35.489Z,69.61
2023-01-11T13:31:05.529Z,67.99
2023-01-11T13:33:34.195Z,68.07
2023-01-11T13:36:22.690Z,67.30
2023-01-11T13:39:17.004Z,67.56
2023-01-11T13:41:52.225Z,67.10
2023-01-11T13:44:28.251Z,66.28
2023-01-11T13:47:01.906Z,67.73
2023-01-11T13:49:51.600Z,70.38
2023-01-11T13:52:32.134Z,70.32
2023-01-11T13:55:30.116Z,70.95
2023-01-11T13:58:01.344Z,70.73
2023-01-11T14:00:52.672Z,70.36
2023-01-11T14:03:30.875Z,71.26
2023-01-11T14:06:24.176Z,71.36
2023-01-11T14:09:07.459Z,72.29
2023-01-11T14:12:14.557Z,72.20
2023-01-11T14:14:50.547Z,72.40
2023-01-11T14:17:28.095Z,72.28
2023-01-11T14:20:16.063Z,72.28
2023-01-11T14:22:52.454Z,72.11
2023-01-11T14:25:34.979Z,72.51
2023-01-11T14:28:44.359Z,73.39
2023-01-11T14:31:30.247Z,72.79
2023-01-11T14:34:14.060Z,73.06
2023-01-11T14:36:47.221Z,72.73
2023-01-11T14:39:28.810Z,72.51
2023-01-11T14:42:33.613Z,73.98
2023-01-11T14:45:28.804Z,74.32
2023-01-11T14:48:14.110Z,74.07
2023-01-11T14:51:15.117Z,73.79
2023-01-11T14:53:55.246Z,73.47
2023-01-11T14:56:42.811Z,73.07
2023-01-11T14:59:42.472Z,74.01
2023-01-11T15:02:17.379Z,73.03
2023-01-11T15:04:54.885Z,71.99
2023-01-11T15:07:24.624Z,71.41
2023-01-11T15:09:54.177Z,71.60
2023-01-11T15:12:25.385Z,71.96
2023-01-11T15:15:03.748Z,72.26
2023-01-11T15:17:50.596Z,73.10
2023-01-11T15:20:20.163Z,73.30
2023-01-11T15:22:54.935Z,73.53
2023-01-11T15:25:28.198Z,74.76
2023-01-11T15:27:56.452Z,75.61
2023-01-11T15:30:30.032Z,77.28
2023-01-11T15:33:18.947Z,77.29
2023-01-11T15:36:07.223Z,76.07
2023-01-11T15:38:42.605Z,75.87
2023-01-11T15:41:36.951Z,75.46
2023-01-11T15:44:06.660Z,75.62
2023-01-11T15:46:55.294Z,76.45
2023-01-11T15:50:01.425Z,76.20
2023-01-11T15:52:50.645Z,75.43
2023-01-11T15:55:48.401Z,75.56
2023-01-11T15:58:23.899Z,75.88
2023-01-11T16:01:08.049Z,76.29
2023-01-11T16:04:02.748Z,76.66
2023-01-11T16:06:36.162Z,77.52
2023-01-11T16:09:25.375Z,78.56
2023-01-11T16:12:02.672Z,79.47
2023-01-11T16:14:57.291Z,80.72
2023-01-11T16:17:25.771Z,79.99
2023-01-11T16:19:56.619Z,79.47
2023-01-11T16:22:26.799Z,79.88
2023-01-11T16:24:58.238Z,79.79
2023-01-11T16:27:28.262Z,80.16
2023-01-11T16:29:57.165Z,79.89
2023-01-11T16:32:35.316Z,80.14
2023-01-11T16:35:16.161Z,79.75
2023-01-11T16:37:46.899Z,79.55
2023-01-11T16:40:18.407Z,78.88
2023-01-11T16:42:52.350Z,79.22
2023-01-11T16:45:21.909Z,79.42
2023-01-11T16:48:02.579Z,80.17
2023-01-11T16:50:29.999Z,80.84
2023-01-11T16:52:59.919Z,81.81
2023-01-11T16:55:40.402Z,82.29
2023-01-11T16:58:22.043Z,82.51
2023-01-11T17:01:05.222Z,82.85
2023-01-11T17:03:38.675Z,83.45
2023-01-11T17:06:08.751Z,83.76
2023-01-11T17:08:38.102Z,83.62
2023-01-11T17:11:32.018Z,83.41
2023-01-11T17:14:27.223Z,83.12
2023-01-11T17:17:00.251Z,82.91
2023-01-11T17:19:31.272Z,82.28
2023-01-11T17:22:15.599Z,82.80
2023-01-11T17:24:52.259Z,82.95
2023-01-11T17:27:25.656Z,83.76
2023-01-11T17:29:55.018Z,84.67
2023-01-11T17:32:47.729Z,84.96
2023-01-11T17:35:24.893Z,85.22
2023-01-11T17:37:56.045Z,85.81
2023-01-11T17:40:36.324Z,86.25
2023-01-11T17:43:23.869Z,86.80
2023-01-11T17:46:02.229Z,87.07
2023-01-11T17:48:30.161Z,86.38
2023-01-11T17:51:04.717Z,86.01
2023-01-11T17:53:36.734Z,86.45
2023-01-11T17:56:27.623Z,86.47
2023-01-11T17:59:16.284Z,86.97
2023-01-11T18:01:48.320Z,87.08
2023-01-11T18:04:21.683Z,87.23
2023-01-11T18:06:53.103Z,87.21
2023-01-11T18:09:30.653Z,86.10
2023-01-11T18:12:36.624Z,85.68
2023-01-11T18:15:06.663Z,85.63
2023-01-11T18:17:45.012Z,85.44
2023-01-11T18:20:15.785Z,85.29
2023-01-11T18:22:59.394Z,86.38
2023-01-11T18:25:32.415Z,87.22
2023-01-11T18:28:25.981Z,87.10
2023-01-11T18:30:57.948Z,87.68
2023-01-11T18:33:27.583Z,87.70
2023-01-11T18:36:00.057Z,88.30
2023-01-11T18:38:34.934Z,87.65
2023-01-11T18:41:26.716Z,88.67
2023-01-11T18:43:54.768Z,88.01
2023-01-11T18:46:23.445Z,87.93
2023-01-11T18:48:53.463Z,86.92
2023-01-11T18:51:34.113Z,86.88
2023-01-11T18:54:01.098Z,86.97
2023-01-11T18:56:28.664Z,86.99
2023-01-11T18:58:55.864Z,86.82
2023-01-11T19:01:23.069Z,86.81
2023-01-11T19:03:51.411Z,86.88
2023-01-11T19:06:21.633Z,87.19
2023-01-11T19:08:48.828Z,87.26
2023-01-11T19:11:16.942Z,87.38
2023-01-11T19:13:47.234Z,87.84
2023-01-11T19:16:15.158Z,87.30
2023-01-11T19:18:46.757Z,86.86
2023-01-11T19:21:14.780Z,86.81
2023-01-11T19:23:42.078Z,86.70
2023-01-11T19:26:09.086Z,86.59
2023-01-11T19:28:37.254Z,86.31
2023-01-11T19:31:09.345Z,85.51
2023-01-11T19:33:36.564Z,84.87
2023-01-11T19:36:07.895Z,84.33
2023-01-11T19:38:35.619Z,83.53
2023-01-11T19:41:10.534Z,84.00
2023-01-11T19:43:44.658Z,85.18
2023-01-11T19:46:25.857Z,85.51
2023-01-11T19:48:58.311Z,85.48
2023-01-11T19:51:25.573Z,85.74
2023-01-11T19:53:52.533Z,85.42
2023-01-11T19:56:19.461Z,85.14
2023-01-11T19:58:46.983Z,84.23
2023-01-11T20:01:14.503Z,84.71
2023-01-11T20:03:42.276Z,85.63
2023-01-11T20:06:09.725Z,85.81
2023-01-11T20:08:40.092Z,85.70
2023-01-11T20:11:18.100Z,85.48
2023-01-11T20:13:50.524Z,86.03
2023-01-11T20:16:24.102Z,86.18
2023-01-11T20:18:52.777Z,86.38
2023-01-11T20:21:21.375Z,86.14
2023-01-11T20:23:48.874Z,86.26
2023-01-11T20:26:17.785Z,86.26
2023-01-11T20:28:51.231Z,86.76
2023-01-11T20:31:18.632Z,85.81
2023-01-11T20:33:45.946Z,86.28
2023-01-11T20:36:17.987Z,85.63
2023-01-11T20:38:46.604Z,86.57
2023-01-11T20:41:37.967Z,86.50
2023-01-11T20:44:07.206Z,86.42
2023-01-11T20:46:35.758Z,85.93
2023-01-11T20:49:04.077Z,86.12
2023-01-11T20:51:31.314Z,85.90
2023-01-11T20:53:58.286Z,86.14
2023-01-11T20:56:25.290Z,85.36
2023-01-11T20:58:52.905Z,85.14
2023-01-11T21:01:26.464Z,85.69
2023-01-11T21:04:06.024Z,85.96
2023-01-11T21:06:34.875Z,86.02
2023-01-11T21:09:02.894Z,85.83
2023-01-11T21:11:31.442Z,85.16
2023-01-11T21:13:59.665Z,85.15
2023-01-11T21:16:28.615Z,85.13
2023-01-11T21:18:58.172Z,85.26
2023-01-11T21:21:31.431Z,84.58
2023-01-11T21:24:00.838Z,84.49
2023-01-11T21:26:28.571Z,84.90
2023-01-11T21:28:59.616Z,85.08
2023-01-11T21:31:29.292Z,84.82
2023-01-11T21:33:56.655Z,85.66
2023-01-11T21:36:28.192Z,85.67
2023-01-11T21:38:56.907Z,85.77
2023-01-11T21:41:48.027Z,85.63
2023-01-11T21:44:16.361Z,84.75
2023-01-11T21:46:43.833Z,85.28
2023-01-11T21:49:12.395Z,84.72
2023-01-11T21:51:40.518Z,84.51
2023-01-11T21:54:10.823Z,85.17
2023-01-11T21:56:41.089Z,85.43
2023-01-11T21:59:08.238Z,85.52
2023-01-11T22:01:35.565Z,85.73
2023-01-11T22:04:07.474Z,85.35
2023-01-11T22:06:40.087Z,86.03
2023-01-11T22:09:10.482Z,86.59
2023-01-11T22:11:39.804Z,86.90
2023-01-11T22:14:08.854Z,86.64
2023-01-11T22:16:46.501Z,86.56
2023-01-11T22:19:15.070Z,86.25
2023-01-11T22:21:42.951Z,85.12
2023-01-11T22:24:18.867Z,86.35
2023-01-11T22:26:46.171Z,85.80
2023-01-11T22:29:16.100Z,85.41
2023-01-11T22:31:52.830Z,84.79
2023-01-11T22:34:19.873Z,85.37
2023-01-11T22:36:47.112Z,85.23
2023-01-11T22:39:15.983Z,85.41
2023-01-11T22:41:45.624Z,84.96
2023-01-11T22:44:13.365Z,86.23
2023-01-11T22:46:40.837Z,86.13
2023-01-11T22:49:08.458Z,86.03
2023-01-11T22:51:35.964Z,85.62
2023-01-11T22:54:03.597Z,85.81
2023-01-11T22:56:31.355Z,86.50
2023-01-11T22:58:58.814Z,86.47
2023-01-11T23:01:30.110Z,86.75
2023-01-11T23:03:58.094Z,86.51
2023-01-11T23:06:27.897Z,86.41
2023-01-11T23:08:55.489Z,86.23
2023-01-11T23:11:44.486Z,85.30
2023-01-11T23:14:14.089Z,85.22
2023-01-11T23:16:41.979Z,86.71
2023-01-11T23:19:10.196Z,87.23
2023-01-11T23:21:42.741Z,88.32
2023-01-11T23:24:10.983Z,87.78
2023-01-11T23:26:38.118Z,86.93
2023-01-11T23:29:06.037Z,86.41
2023-01-11T23:31:33.387Z,86.66
2023-01-11T23:37:44.439Z,87.14
2023-01-11T23:40:11.880Z,87.44
2023-01-11T23:42:39.989Z,87.86
2023-01-11T23:45:07.661Z,88.83
2023-01-11T23:47:34.685Z,88.28
2023-01-11T23:50:01.703Z,88.30
2023-01-11T23:52:32.248Z,88.10
2023-01-11T23:54:59.400Z,88.18
2023-01-11T23:57:26.996Z,87.26
2023-01-11T23:59:54.279Z,87.25
